VOGO

Dabolim International Airport

Airport
ICAO code
VOGO
IATA Code
GOI
Summary
ICAO Region
APAC
ICAO Territory
Location

Dabolim, Mormugão, Goa,

Serving
Goa
Elevation
183 ft
Coordinates
15° 22' 50" N , 73° 49' 59" E
KCC
Metar
Observation
VOGO 071900Z 13003KT 6000 FEW012 SCT020 BKN080 24/22 Q1008 NOSIG
Station
Goa International Airport
Date/Time
2022-10-07 19:00:00
Wind direction
130°
Wind speed
03 kts
Lowest cloud amount
few clouds
Temperature
24°C
Dew point
22°C
Humidity
88%
QNH
1008 hPa
Weather condition
n/a

International airport serving the state of Goa, India.

Climatology

Tropical Savanna climate (Köppen climate classification Aw)

Airport map

Aerial View

Airport accidents

SKYbrary Partners:

Safety knowledge contributed by: